Time;durP1;ratioP1;P1;durP2;ratioP2;P2;SDS_P1;SDS_P2;PMS_P1;PMS_P2;Temp;Humidity;BMP_temperature;BMP_pressure;BME280_temperature;BME280_humidity;BME280_pressure;Samples;Min_cycle;Max_cycle;Signal;HPM_P1;HPM_P2
2021/09/28 00:01:47;;;;;;;1.55;0.73;;;;;;;;;;5016493;28;20025;-59
2021/09/28 00:04:15;;;;;;;0.88;0.50;;;;;;;;;;5000371;28;20084;-59
2021/09/28 00:06:41;;;;;;;1.80;0.70;;;;;;;;;;5033810;28;20452;-59
2021/09/28 00:09:07;;;;;;;1.48;0.45;;;;;;;;;;5000393;28;20029;-59
2021/09/28 00:11:34;;;;;;;0.63;0.25;;;;;;;;;;5033635;28;20032;-59
2021/09/28 00:14:00;;;;;;;1.13;0.65;;;;;;;;;;5033542;28;20060;-59
2021/09/28 00:16:27;;;;;;;1.73;0.30;;;;;;;;;;5034422;28;20045;-59
2021/09/28 00:18:53;;;;;;;0.93;0.30;;;;;;;;;;5033415;28;20104;-59
2021/09/28 00:21:19;;;;;;;0.30;0.20;;;;;;;;;;5015754;28;20026;-59
2021/09/28 00:23:48;;;;;;;0.30;0.20;;;;;;;;;;5016887;28;20444;-59
2021/09/28 00:26:14;;;;;;;1.48;0.50;;;;;;;;;;5016796;28;20337;-59
2021/09/28 00:28:40;;;;;;;2.35;0.75;;;;;;;;;;5015991;28;20048;-59
2021/09/28 00:31:06;;;;;;;0.40;0.28;;;;;;;;;;5015626;28;20022;-59
2021/09/28 00:33:32;;;;;;;1.35;0.50;;;;;;;;;;5033320;28;20478;-59
2021/09/28 00:35:59;;;;;;;1.08;0.32;;;;;;;;;;4999425;28;20030;-59
2021/09/28 00:38:25;;;;;;;0.93;0.40;;;;;;;;;;5015887;28;20030;-59
2021/09/28 00:40:51;;;;;;;0.57;0.22;;;;;;;;;;5033363;28;20025;-59
2021/09/28 00:43:19;;;;;;;1.00;0.50;;;;;;;;;;5033534;28;20029;-59
2021/09/28 00:45:45;;;;;;;1.13;0.63;;;;;;;;;;5015783;28;20041;-59
2021/09/28 00:48:13;;;;;;;1.20;0.60;;;;;;;;;;5033021;28;20025;-59
2021/09/28 00:50:39;;;;;;;1.30;0.57;;;;;;;;;;5015995;28;20029;-59
2021/09/28 00:53:05;;;;;;;1.95;0.82;;;;;;;;;;5035366;28;20022;-59
2021/09/28 00:55:31;;;;;;;2.05;0.80;;;;;;;;;;5036965;28;20380;-59
2021/09/28 00:58:02;;;;;;;1.65;0.43;;;;;;;;;;5036951;28;20025;-59
2021/09/28 01:00:28;;;;;;;1.85;0.75;;;;;;;;;;5019276;28;20120;-59
2021/09/28 01:02:55;;;;;;;1.23;0.63;;;;;;;;;;5037403;28;20033;-59
2021/09/28 01:05:21;;;;;;;1.30;0.60;;;;;;;;;;5018862;28;20029;-59
2021/09/28 01:07:47;;;;;;;3.28;0.65;;;;;;;;;;5036655;28;20430;-59
2021/09/28 01:10:13;;;;;;;1.65;0.50;;;;;;;;;;5019830;28;20037;-59
2021/09/28 01:12:39;;;;;;;1.17;0.52;;;;;;;;;;5037456;28;20356;-59
2021/09/28 01:15:06;;;;;;;1.10;0.60;;;;;;;;;;5036900;28;20050;-59
2021/09/28 01:17:32;;;;;;;1.35;0.65;;;;;;;;;;5018571;28;20490;-59
2021/09/28 01:19:58;;;;;;;2.35;0.65;;;;;;;;;;5018846;28;20124;-59
2021/09/28 01:22:24;;;;;;;2.78;0.70;;;;;;;;;;5036563;28;20109;-59
2021/09/28 01:24:50;;;;;;;1.85;0.82;;;;;;;;;;5036495;28;20033;-59
2021/09/28 01:27:17;;;;;;;4.57;1.15;;;;;;;;;;5036159;28;20467;-59
2021/09/28 01:29:43;;;;;;;2.38;0.70;;;;;;;;;;5036455;28;20028;-59
2021/09/28 01:32:09;;;;;;;1.88;0.82;;;;;;;;;;5019031;28;20025;-59
2021/09/28 01:34:35;;;;;;;1.48;0.77;;;;;;;;;;5036401;28;20041;-59
2021/09/28 01:37:01;;;;;;;1.90;0.80;;;;;;;;;;5002292;28;20029;-59
2021/09/28 01:39:30;;;;;;;3.03;1.10;;;;;;;;;;5018378;28;20048;-59
2021/09/28 01:41:56;;;;;;;1.25;0.65;;;;;;;;;;5018112;28;20022;-59
2021/09/28 01:44:22;;;;;;;2.22;0.85;;;;;;;;;;5018898;28;20368;-59
2021/09/28 01:46:52;;;;;;;1.13;0.57;;;;;;;;;;5036349;28;20048;-59
2021/09/28 01:49:21;;;;;;;1.98;1.00;;;;;;;;;;5036046;28;20502;-59
2021/09/28 01:51:47;;;;;;;9.07;0.85;;;;;;;;;;5018755;28;20124;-59
2021/09/28 01:54:13;;;;;;;2.70;0.82;;;;;;;;;;5018737;28;20034;-59
2021/09/28 01:56:41;;;;;;;2.33;1.17;;;;;;;;;;5035796;28;20033;-59
2021/09/28 01:59:08;;;;;;;4.68;0.57;;;;;;;;;;5035807;28;20047;-59
2021/09/28 02:01:34;;;;;;;1.50;0.75;;;;;;;;;;5035827;28;20391;-59
2021/09/28 02:04:00;;;;;;;3.75;0.45;;;;;;;;;;5017758;28;20029;-59
2021/09/28 02:06:27;;;;;;;2.38;0.68;;;;;;;;;;5035766;28;20470;-59
2021/09/28 02:08:53;;;;;;;3.75;1.60;;;;;;;;;;5036024;28;20373;-59
2021/09/28 02:11:21;;;;;;;5.32;1.30;;;;;;;;;;5035857;28;20490;-59
2021/09/28 02:13:49;;;;;;;3.80;1.17;;;;;;;;;;5035620;28;20068;-59
2021/09/28 02:16:16;;;;;;;1.38;0.60;;;;;;;;;;5017432;28;20063;-59
2021/09/28 02:18:43;;;;;;;3.47;1.25;;;;;;;;;;5035511;28;20499;-59
2021/09/28 02:21:09;;;;;;;1.95;0.77;;;;;;;;;;5035735;28;20096;-59
2021/09/28 02:23:40;;;;;;;2.35;1.08;;;;;;;;;;5018085;28;20184;-59
2021/09/28 02:26:09;;;;;;;2.45;0.90;;;;;;;;;;5035908;28;20025;-59
2021/09/28 02:28:35;;;;;;;1.05;0.40;;;;;;;;;;5035306;28;20065;-59
2021/09/28 02:31:02;;;;;;;1.30;0.52;;;;;;;;;;5035776;28;20030;-60
2021/09/28 02:33:28;;;;;;;1.88;0.70;;;;;;;;;;5035968;28;20033;-59
2021/09/28 02:35:54;;;;;;;1.65;0.70;;;;;;;;;;5035110;28;20039;-59
2021/09/28 02:38:20;;;;;;;3.28;0.85;;;;;;;;;;5016972;28;20033;-59
2021/09/28 02:40:46;;;;;;;0.98;0.40;;;;;;;;;;5035394;28;20021;-59
2021/09/28 02:43:13;;;;;;;2.47;0.88;;;;;;;;;;5035302;28;20032;-59
2021/09/28 02:45:40;;;;;;;2.15;0.90;;;;;;;;;;5017686;28;20360;-59
2021/09/28 02:48:13;;;;;;;1.67;0.70;;;;;;;;;;5017130;28;20371;-59
2021/09/28 02:50:39;;;;;;;1.63;0.75;;;;;;;;;;5017670;28;20106;-59
2021/09/28 02:53:05;;;;;;;1.75;0.93;;;;;;;;;;5017436;28;20021;-59
2021/09/28 02:55:32;;;;;;;4.80;1.38;;;;;;;;;;5034646;28;20037;-59
2021/09/28 02:57:58;;;;;;;5.38;1.50;;;;;;;;;;5034998;28;20032;-60
2021/09/28 03:00:24;;;;;;;3.58;1.48;;;;;;;;;;5034722;28;20104;-59
2021/09/28 03:02:50;;;;;;;5.20;1.27;;;;;;;;;;5017478;28;20444;-59
2021/09/28 03:05:16;;;;;;;1.60;1.08;;;;;;;;;;5000650;28;20025;-59
2021/09/28 03:07:42;;;;;;;1.52;0.95;;;;;;;;;;5034193;28;20087;-59
2021/09/28 03:10:08;;;;;;;2.20;0.73;;;;;;;;;;5034525;28;20033;-59
2021/09/28 03:12:34;;;;;;;2.00;0.60;;;;;;;;;;5034080;28;20060;-59
2021/09/28 03:15:02;;;;;;;3.45;1.02;;;;;;;;;;5015896;28;20049;-58
2021/09/28 03:17:28;;;;;;;2.90;1.02;;;;;;;;;;5017191;28;20056;-58
2021/09/28 03:19:54;;;;;;;2.38;0.52;;;;;;;;;;5016686;28;20587;-58
2021/09/28 03:22:21;;;;;;;3.20;1.20;;;;;;;;;;5017196;28;20387;-58
2021/09/28 03:24:47;;;;;;;2.28;1.20;;;;;;;;;;5016558;28;20285;-58
2021/09/28 03:27:13;;;;;;;4.05;1.30;;;;;;;;;;5016437;28;20032;-58
2021/09/28 03:29:39;;;;;;;1.40;0.68;;;;;;;;;;5034050;28;20448;-58
2021/09/28 03:32:05;;;;;;;2.78;0.85;;;;;;;;;;5016645;28;20049;-58
2021/09/28 03:34:34;;;;;;;2.67;0.90;;;;;;;;;;5016337;28;20501;-58
2021/09/28 03:37:00;;;;;;;7.00;1.10;;;;;;;;;;5016554;28;20033;-58
2021/09/28 03:39:26;;;;;;;2.40;1.15;;;;;;;;;;5033941;28;20351;-58
2021/09/28 03:41:52;;;;;;;1.90;0.80;;;;;;;;;;5016448;28;20455;-58
2021/09/28 03:44:18;;;;;;;2.20;1.45;;;;;;;;;;5034345;28;20030;-58
2021/09/28 03:46:44;;;;;;;2.63;1.17;;;;;;;;;;5033948;28;20029;-58
2021/09/28 03:49:12;;;;;;;1.42;0.70;;;;;;;;;;5034577;28;20029;-58
2021/09/28 03:51:38;;;;;;;1.90;1.00;;;;;;;;;;5033914;28;20033;-58
2021/09/28 03:54:04;;;;;;;1.90;1.10;;;;;;;;;;5034115;28;20132;-58
2021/09/28 03:56:30;;;;;;;0.95;0.50;;;;;;;;;;5033811;28;20491;-58
2021/09/28 03:58:56;;;;;;;4.25;0.90;;;;;;;;;;5033760;28;20030;-58
2021/09/28 04:01:22;;;;;;;1.65;1.15;;;;;;;;;;5033814;28;20418;-58
2021/09/28 04:03:48;;;;;;;2.20;0.70;;;;;;;;;;5033755;28;20429;-58
2021/09/28 04:06:14;;;;;;;2.83;1.40;;;;;;;;;;5034454;28;20032;-58
2021/09/28 04:08:40;;;;;;;3.58;1.15;;;;;;;;;;5033669;28;20068;-58
2021/09/28 04:11:06;;;;;;;4.55;1.25;;;;;;;;;;5033586;28;20033;-59
2021/09/28 04:13:32;;;;;;;4.97;1.25;;;;;;;;;;5034022;28;20049;-58
2021/09/28 04:16:00;;;;;;;3.45;1.33;;;;;;;;;;5015429;28;20045;-59
2021/09/28 04:18:26;;;;;;;3.35;1.08;;;;;;;;;;5033557;28;20061;-58
2021/09/28 04:20:52;;;;;;;1.95;0.98;;;;;;;;;;5033500;28;20082;-58
2021/09/28 04:23:19;;;;;;;3.50;1.17;;;;;;;;;;5016945;28;20521;-58
2021/09/28 04:25:46;;;;;;;4.47;1.55;;;;;;;;;;5033619;28;20112;-58
2021/09/28 04:28:15;;;;;;;2.60;1.30;;;;;;;;;;5037647;28;20022;-58
2021/09/28 04:30:41;;;;;;;3.70;1.13;;;;;;;;;;5037454;28;20519;-58
2021/09/28 04:33:08;;;;;;;1.80;0.90;;;;;;;;;;5038376;28;20025;-58
2021/09/28 04:35:34;;;;;;;1.80;1.17;;;;;;;;;;5037683;28;20044;-58
2021/09/28 04:38:03;;;;;;;5.55;1.75;;;;;;;;;;5037460;28;20026;-58
2021/09/28 04:40:29;;;;;;;3.00;1.52;;;;;;;;;;5037314;28;20061;-58
2021/09/28 04:42:55;;;;;;;2.45;1.05;;;;;;;;;;5038003;28;20026;-58
2021/09/28 04:45:21;;;;;;;1.55;0.80;;;;;;;;;;5037783;28;20420;-58
2021/09/28 04:47:47;;;;;;;2.13;1.13;;;;;;;;;;5019772;28;20384;-58
2021/09/28 04:50:15;;;;;;;2.63;1.05;;;;;;;;;;5037462;28;20022;-58
2021/09/28 04:52:41;;;;;;;2.70;1.50;;;;;;;;;;5037484;28;20033;-58
2021/09/28 04:55:07;;;;;;;2.85;1.33;;;;;;;;;;5037046;28;20038;-58
2021/09/28 04:57:33;;;;;;;3.53;1.77;;;;;;;;;;5019109;28;20025;-58
2021/09/28 05:00:00;;;;;;;5.70;1.70;;;;;;;;;;5037382;28;20026;-58
2021/09/28 05:02:26;;;;;;;5.15;2.47;;;;;;;;;;5019418;28;20030;-58
2021/09/28 05:04:52;;;;;;;3.13;1.83;;;;;;;;;;5037003;28;20083;-58
2021/09/28 05:07:18;;;;;;;7.60;1.75;;;;;;;;;;5037043;28;20053;-58
2021/09/28 05:09:44;;;;;;;5.90;2.30;;;;;;;;;;5036560;28;20021;-58
2021/09/28 05:12:10;;;;;;;3.42;1.27;;;;;;;;;;5036563;28;20452;-58
2021/09/28 05:14:38;;;;;;;3.42;2.75;;;;;;;;;;5036471;28;20057;-58
2021/09/28 05:17:04;;;;;;;4.10;1.73;;;;;;;;;;5036663;28;20025;-58
2021/09/28 05:19:30;;;;;;;4.78;2.38;;;;;;;;;;5036674;28;20048;-58
2021/09/28 05:21:59;;;;;;;5.50;2.00;;;;;;;;;;5019178;28;20353;-58
2021/09/28 05:24:27;;;;;;;4.15;2.13;;;;;;;;;;5036558;28;20149;-58
2021/09/28 05:26:53;;;;;;;5.68;2.65;;;;;;;;;;5037251;28;20033;-58
2021/09/28 05:29:19;;;;;;;3.47;2.30;;;;;;;;;;5019466;28;20411;-58
2021/09/28 05:31:45;;;;;;;5.57;2.75;;;;;;;;;;5037220;28;20366;-58
2021/09/28 05:34:11;;;;;;;2.72;2.03;;;;;;;;;;5036371;28;20104;-58
2021/09/28 05:36:37;;;;;;;2.50;1.80;;;;;;;;;;5036834;28;20128;-58
2021/09/28 05:39:03;;;;;;;3.13;1.95;;;;;;;;;;5035543;28;20104;-58
2021/09/28 05:41:29;;;;;;;4.93;2.28;;;;;;;;;;5036277;28;20094;-58
2021/09/28 05:43:56;;;;;;;3.38;1.83;;;;;;;;;;5036987;28;20104;-58
2021/09/28 05:46:22;;;;;;;3.63;2.03;;;;;;;;;;5036892;28;20108;-58
2021/09/28 05:48:50;;;;;;;3.72;2.38;;;;;;;;;;5036549;28;20021;-58
2021/09/28 05:51:18;;;;;;;3.80;2.10;;;;;;;;;;5036066;28;20455;-58
2021/09/28 05:53:45;;;;;;;3.55;2.72;;;;;;;;;;5036305;28;20025;-58
2021/09/28 05:56:14;;;;;;;4.35;2.70;;;;;;;;;;5036385;28;20045;-58
2021/09/28 05:58:40;;;;;;;5.68;2.10;;;;;;;;;;5036228;28;20030;-58
2021/09/28 06:01:09;;;;;;;3.70;2.15;;;;;;;;;;5035940;28;20022;-58
2021/09/28 06:03:35;;;;;;;5.00;2.63;;;;;;;;;;5036723;28;20028;-58
2021/09/28 06:06:02;;;;;;;5.50;2.92;;;;;;;;;;5035436;28;20533;-58
2021/09/28 06:08:30;;;;;;;6.43;3.78;;;;;;;;;;5035966;28;20022;-58
2021/09/28 06:10:56;;;;;;;5.10;3.03;;;;;;;;;;5035368;28;20022;-58
2021/09/28 06:13:22;;;;;;;4.22;2.53;;;;;;;;;;5035995;28;20380;-58
2021/09/28 06:15:48;;;;;;;4.63;3.05;;;;;;;;;;5036102;28;20060;-59
2021/09/28 06:18:14;;;;;;;3.38;2.60;;;;;;;;;;5035098;28;20112;-58
2021/09/28 06:20:40;;;;;;;5.75;2.50;;;;;;;;;;5035985;28;20483;-59
2021/09/28 06:23:06;;;;;;;9.50;3.28;;;;;;;;;;5035828;28;20032;-59
2021/09/28 06:25:35;;;;;;;6.22;3.40;;;;;;;;;;5035918;28;20337;-59
2021/09/28 06:28:01;;;;;;;4.10;2.90;;;;;;;;;;5035154;28;20049;-59
2021/09/28 06:30:27;;;;;;;3.75;2.47;;;;;;;;;;5034731;28;20030;-59
2021/09/28 06:32:53;;;;;;;5.88;3.58;;;;;;;;;;5034854;28;20084;-59
2021/09/28 06:35:19;;;;;;;5.50;2.80;;;;;;;;;;5034797;28;20037;-59
2021/09/28 06:37:45;;;;;;;6.63;2.50;;;;;;;;;;5035363;28;20029;-59
2021/09/28 06:40:12;;;;;;;3.63;2.58;;;;;;;;;;5017138;28;20029;-59
2021/09/28 06:42:38;;;;;;;2.65;1.90;;;;;;;;;;5035568;28;20017;-59
2021/09/28 06:45:04;;;;;;;5.55;2.97;;;;;;;;;;5034980;28;20091;-59
2021/09/28 06:47:30;;;;;;;5.15;2.40;;;;;;;;;;5017294;28;20125;-59
2021/09/28 06:49:56;;;;;;;5.95;3.05;;;;;;;;;;5034410;28;20084;-59
2021/09/28 06:52:22;;;;;;;6.00;3.17;;;;;;;;;;5035385;28;20080;-59
2021/09/28 06:54:48;;;;;;;5.00;2.72;;;;;;;;;;5034386;28;20037;-59
2021/09/28 06:57:14;;;;;;;3.63;2.60;;;;;;;;;;5034760;28;20025;-59
2021/09/28 06:59:40;;;;;;;9.30;3.40;;;;;;;;;;5035462;28;20025;-59
2021/09/28 07:02:06;;;;;;;5.55;2.95;;;;;;;;;;5034979;28;20025;-59
2021/09/28 07:04:32;;;;;;;6.07;2.65;;;;;;;;;;5034647;28;20067;-59
2021/09/28 07:07:02;;;;;;;5.60;3.65;;;;;;;;;;5034639;28;20337;-59
2021/09/28 07:09:28;;;;;;;7.43;3.38;;;;;;;;;;5034406;28;20368;-59
2021/09/28 07:12:02;;;;;;;6.65;3.05;;;;;;;;;;5071249;28;20145;-58
2021/09/28 07:14:28;;;;;;;5.22;2.85;;;;;;;;;;5071212;28;20451;-58
2021/09/28 07:16:56;;;;;;;3.50;2.70;;;;;;;;;;5070782;28;20036;-58
2021/09/28 07:19:25;;;;;;;4.10;2.88;;;;;;;;;;5070967;28;20447;-58
2021/09/28 07:21:50;;;;;;;5.80;3.47;;;;;;;;;;5070102;28;20371;-58
2021/09/28 07:24:16;;;;;;;4.15;2.88;;;;;;;;;;5070702;28;20021;-58
2021/09/28 07:26:43;;;;;;;6.78;4.10;;;;;;;;;;5070374;28;20428;-58
2021/09/28 07:29:08;;;;;;;3.63;2.78;;;;;;;;;;5069841;28;20032;-58
2021/09/28 07:31:34;;;;;;;9.18;4.45;;;;;;;;;;5070608;28;20441;-58
2021/09/28 07:34:03;;;;;;;10.00;5.30;;;;;;;;;;5070727;28;20036;-58
2021/09/28 07:36:29;;;;;;;6.53;4.20;;;;;;;;;;5070742;28;20373;-58
2021/09/28 07:39:00;;;;;;;6.82;4.70;;;;;;;;;;5062740;28;20429;-58
2021/09/28 07:41:26;;;;;;;;;;;;;;;;;;5051710;28;20083;-58
2021/09/28 07:43:52;;;;;;;5.55;4.18;;;;;;;;;;5050701;28;19909;-58
2021/09/28 07:46:18;;;;;;;6.30;4.38;;;;;;;;;;5050162;28;20040;-58
2021/09/28 07:48:45;;;;;;;13.23;4.57;;;;;;;;;;5050463;28;20083;-58
2021/09/28 07:51:11;;;;;;;10.30;5.03;;;;;;;;;;5048794;28;20048;-58
2021/09/28 07:53:37;;;;;;;7.43;4.47;;;;;;;;;;5049113;28;20025;-58
2021/09/28 07:56:06;;;;;;;7.97;4.13;;;;;;;;;;5049047;28;20044;-58
2021/09/28 07:58:32;;;;;;;10.02;5.68;;;;;;;;;;5050414;28;20183;-58
2021/09/28 08:00:58;;;;;;;6.75;4.72;;;;;;;;;;5050132;28;20033;-58
2021/09/28 08:03:24;;;;;;;8.35;4.45;;;;;;;;;;5050459;28;20030;-58
2021/09/28 08:05:50;;;;;;;7.38;5.60;;;;;;;;;;5050408;28;20025;-58
2021/09/28 08:08:17;;;;;;;5.88;4.63;;;;;;;;;;5050280;28;20371;-58
2021/09/28 08:10:43;;;;;;;8.98;5.30;;;;;;;;;;5059371;28;20057;-60
2021/09/28 08:13:10;;;;;;;10.95;4.90;;;;;;;;;;5069845;28;20037;-60
2021/09/28 08:15:36;;;;;;;6.55;3.72;;;;;;;;;;5069455;28;20120;-60
2021/09/28 08:18:03;;;;;;;7.47;5.70;;;;;;;;;;5051937;28;20029;-60
2021/09/28 08:20:29;;;;;;;11.10;5.93;;;;;;;;;;5052908;28;20029;-60
2021/09/28 08:22:56;;;;;;;10.63;5.63;;;;;;;;;;5058987;28;20025;-60
2021/09/28 08:25:33;;;;;;;9.05;5.45;;;;;;;;;;5056375;28;20028;-60
2021/09/28 08:30:44;;;;;;;8.27;5.50;;;;;;;;;;5056535;28;20047;-60
2021/09/28 08:33:10;;;;;;;7.25;5.32;;;;;;;;;;5039605;28;20402;-60
2021/09/28 08:35:36;;;;;;;6.40;5.60;;;;;;;;;;5056200;28;20036;-60
2021/09/28 08:38:02;;;;;;;9.55;5.68;;;;;;;;;;5056743;28;20021;-60
2021/09/28 08:40:28;;;;;;;9.75;5.85;;;;;;;;;;5056016;28;20029;-60
2021/09/28 08:42:55;;;;;;;5.72;4.68;;;;;;;;;;5056396;28;20060;-60
2021/09/28 08:45:22;;;;;;;6.40;5.10;;;;;;;;;;5056841;28;20021;-60
2021/09/28 08:47:49;;;;;;;7.57;4.80;;;;;;;;;;5055957;28;20032;-60
2021/09/28 08:50:22;;;;;;;8.48;4.65;;;;;;;;;;5055584;28;20033;-60
2021/09/28 08:52:49;;;;;;;10.10;5.40;;;;;;;;;;5037850;28;20117;-60
2021/09/28 08:55:15;;;;;;;5.75;4.55;;;;;;;;;;5055821;28;20443;-60
2021/09/28 08:57:41;;;;;;;8.98;5.72;;;;;;;;;;5055823;28;20135;-60
2021/09/28 09:00:16;;;;;;;6.93;5.00;;;;;;;;;;5056266;28;20190;-60
2021/09/28 09:02:43;;;;;;;10.85;5.90;;;;;;;;;;5056256;28;20024;-60
2021/09/28 09:05:16;;;;;;;7.10;5.30;;;;;;;;;;5055756;28;20044;-60
2021/09/28 09:07:43;;;;;;;5.82;5.22;;;;;;;;;;5056219;28;20111;-59
2021/09/28 09:10:12;;;;;;;12.65;5.45;;;;;;;;;;5037929;28;20976;-60
2021/09/28 09:12:41;;;;;;;5.50;4.10;;;;;;;;;;5055577;28;20036;-60
2021/09/28 09:15:17;;;;;;;5.30;3.83;;;;;;;;;;5055559;28;20032;-60
2021/09/28 09:17:43;;;;;;;6.90;3.97;;;;;;;;;;5055209;28;20099;-60
2021/09/28 09:20:48;;;;;;;6.00;3.83;;;;;;;;;;5056012;28;20502;-60
2021/09/28 09:23:26;;;;;;;4.60;3.45;;;;;;;;;;4954634;29;20059;-60
2021/09/28 09:26:02;;;;;;;5.68;3.85;;;;;;;;;;5044893;28;20388;-60
2021/09/28 09:28:32;;;;;;;7.05;4.93;;;;;;;;;;5055535;28;20025;-60
2021/09/28 09:31:17;;;;;;;4.50;3.55;;;;;;;;;;5055674;28;20044;-59
2021/09/28 09:33:46;;;;;;;10.82;4.13;;;;;;;;;;5054310;28;20057;-60
2021/09/28 09:36:16;;;;;;;11.43;4.50;;;;;;;;;;5054882;28;20040;-60
2021/09/28 09:38:44;;;;;;;5.55;3.47;;;;;;;;;;5055648;28;20505;-60
2021/09/28 09:41:10;;;;;;;6.93;4.07;;;;;;;;;;5055302;28;20029;-59
2021/09/28 09:43:39;;;;;;;8.55;3.80;;;;;;;;;;5055067;28;20017;-59
2021/09/28 09:46:09;;;;;;;6.95;3.83;;;;;;;;;;5054965;28;20028;-60
2021/09/28 09:48:35;;;;;;;5.57;3.55;;;;;;;;;;5055133;28;20463;-60
2021/09/28 09:51:12;;;;;;;3.97;2.60;;;;;;;;;;5054782;28;20463;-59
2021/09/28 09:53:49;;;;;;;4.00;3.28;;;;;;;;;;5054810;28;20032;-59
2021/09/28 09:56:16;;;;;;;6.13;3.70;;;;;;;;;;5055155;28;20071;-60
2021/09/28 09:58:42;;;;;;;4.43;4.03;;;;;;;;;;5054554;28;20027;-60
2021/09/28 10:01:08;;;;;;;6.03;3.75;;;;;;;;;;5036730;28;20025;-60
2021/09/28 10:03:38;;;;;;;4.43;3.00;;;;;;;;;;5054583;28;20023;-60
2021/09/28 10:06:04;;;;;;;4.25;2.97;;;;;;;;;;5055117;28;20379;-59
2021/09/28 10:08:33;;;;;;;4.45;3.40;;;;;;;;;;5054457;28;20031;-60
2021/09/28 10:11:00;;;;;;;3.72;3.05;;;;;;;;;;5054718;28;20140;-59
2021/09/28 10:13:45;;;;;;;5.50;3.55;;;;;;;;;;5055163;28;20483;-59
2021/09/28 10:16:27;;;;;;;3.30;3.00;;;;;;;;;;5054833;28;20152;-60
2021/09/28 10:18:53;;;;;;;4.18;2.75;;;;;;;;;;5037011;28;20351;-59
2021/09/28 10:21:38;;;;;;;3.58;3.15;;;;;;;;;;5054742;28;20108;-59
2021/09/28 10:24:25;;;;;;;7.03;3.15;;;;;;;;;;5037112;28;20474;-60
2021/09/28 10:27:00;;;;;;;5.78;4.13;;;;;;;;;;5036191;28;20032;-59
2021/09/28 10:29:44;;;;;;;4.95;3.47;;;;;;;;;;5054453;28;20108;-60
2021/09/28 10:32:25;;;;;;;2.92;2.45;;;;;;;;;;5054732;28;20059;-60
2021/09/28 10:35:07;;;;;;;6.32;3.50;;;;;;;;;;5053619;28;20475;-60
2021/09/28 10:37:45;;;;;;;6.47;3.55;;;;;;;;;;5054017;28;20029;-60
2021/09/28 10:40:11;;;;;;;4.00;2.80;;;;;;;;;;5053596;28;20025;-60
2021/09/28 10:43:01;;;;;;;3.67;2.63;;;;;;;;;;5054391;28;20452;-60
2021/09/28 10:45:31;;;;;;;5.65;3.78;;;;;;;;;;5053693;28;20029;-60
2021/09/28 10:47:57;;;;;;;6.45;3.42;;;;;;;;;;5054309;28;20070;-60
2021/09/28 10:50:27;;;;;;;6.13;3.95;;;;;;;;;;5054126;28;20467;-60
2021/09/28 10:52:54;;;;;;;4.18;2.85;;;;;;;;;;5054000;28;20486;-60
2021/09/28 10:55:21;;;;;;;4.15;2.60;;;;;;;;;;5053726;28;20053;-60
2021/09/28 10:58:15;;;;;;;5.50;3.40;;;;;;;;;;5053726;28;20379;-60
2021/09/28 11:00:49;;;;;;;3.97;2.30;;;;;;;;;;5054310;28;20475;-60
2021/09/28 11:03:17;;;;;;;3.78;2.45;;;;;;;;;;5053983;28;20017;-60
2021/09/28 11:05:44;;;;;;;4.15;2.63;;;;;;;;;;5053643;28;20040;-60
2021/09/28 11:08:10;;;;;;;5.18;2.60;;;;;;;;;;5053742;28;20033;-60
2021/09/28 11:10:37;;;;;;;3.95;2.47;;;;;;;;;;5035576;28;20465;-60
2021/09/28 11:13:12;;;;;;;4.72;2.92;;;;;;;;;;5054141;28;20118;-60
2021/09/28 11:15:39;;;;;;;3.33;2.53;;;;;;;;;;5053485;28;20028;-60
2021/09/28 11:18:11;;;;;;;4.05;3.38;;;;;;;;;;5036519;28;20025;-60
2021/09/28 11:20:37;;;;;;;6.28;3.28;;;;;;;;;;5053498;28;20071;-60
2021/09/28 11:23:07;;;;;;;5.05;2.47;;;;;;;;;;5053965;28;20025;-60
2021/09/28 11:25:35;;;;;;;3.22;2.42;;;;;;;;;;5053149;28;20470;-60
2021/09/28 11:28:01;;;;;;;3.17;2.47;;;;;;;;;;5053360;28;20035;-60
2021/09/28 11:30:28;;;;;;;5.85;2.75;;;;;;;;;;5053611;28;20370;-60
2021/09/28 11:32:58;;;;;;;6.75;3.15;;;;;;;;;;5053991;28;20021;-60
2021/09/28 11:35:24;;;;;;;3.95;2.65;;;;;;;;;;5052668;28;20422;-60
2021/09/28 11:37:55;;;;;;;4.28;3.17;;;;;;;;;;5053908;28;20116;-60
2021/09/28 11:40:21;;;;;;;6.07;2.95;;;;;;;;;;5053782;28;20463;-60
2021/09/28 11:42:47;;;;;;;3.78;2.30;;;;;;;;;;5053655;28;20021;-60
2021/09/28 11:45:13;;;;;;;4.72;2.40;;;;;;;;;;5035374;28;20021;-60
2021/09/28 11:47:43;;;;;;;5.80;2.88;;;;;;;;;;5053025;28;20162;-60
2021/09/28 11:50:09;;;;;;;8.70;2.63;;;;;;;;;;5053256;28;20025;-60
2021/09/28 11:52:36;;;;;;;5.18;2.60;;;;;;;;;;5054004;28;20028;-60
2021/09/28 11:55:02;;;;;;;9.50;3.13;;;;;;;;;;5053178;28;20021;-60
2021/09/28 11:57:29;;;;;;;2.95;2.38;;;;;;;;;;5054779;28;20402;-60
2021/09/28 11:59:56;;;;;;;3.65;2.70;;;;;;;;;;5057094;28;20017;-60
2021/09/28 12:02:22;;;;;;;8.38;3.15;;;;;;;;;;5039945;28;20024;-60
2021/09/28 12:10:14;;;;;;;3.35;2.15;;;;;;;;;;5056690;28;20049;-60
2021/09/28 12:12:40;;;;;;;3.90;2.60;;;;;;;;;;5056719;28;20025;-60
2021/09/28 12:15:10;;;;;;;4.95;2.28;;;;;;;;;;5056631;28;20029;-60
2021/09/28 12:17:41;;;;;;;6.00;2.90;;;;;;;;;;5056752;28;20082;-60
2021/09/28 12:20:12;;;;;;;3.35;2.42;;;;;;;;;;5057883;28;20021;-60
2021/09/28 12:22:47;;;;;;;3.10;2.15;;;;;;;;;;5056964;28;20025;-60
2021/09/28 12:25:23;;;;;;;5.35;2.25;;;;;;;;;;5056463;28;20017;-60
2021/09/28 12:27:52;;;;;;;3.42;2.50;;;;;;;;;;5056831;28;20103;-60
2021/09/28 12:30:19;;;;;;;4.03;2.43;;;;;;;;;;5056312;28;20065;-60
2021/09/28 12:32:48;;;;;;;3.95;2.83;;;;;;;;;;5056890;28;20075;-60
2021/09/28 12:35:17;;;;;;;4.68;2.63;;;;;;;;;;5038428;28;20371;-60
2021/09/28 12:37:48;;;;;;;4.30;2.55;;;;;;;;;;5056296;28;20025;-60
2021/09/28 12:40:14;;;;;;;;;;;;;;;;;;5056487;28;20051;-60
2021/09/28 12:42:41;;;;;;;6.45;2.47;;;;;;;;;;5056450;28;19905;-59
2021/09/28 12:45:08;;;;;;;7.07;3.20;;;;;;;;;;5038038;28;20032;-60
2021/09/28 12:47:36;;;;;;;2.22;1.80;;;;;;;;;;5055992;28;20352;-59
2021/09/28 12:50:19;;;;;;;3.40;2.13;;;;;;;;;;5037902;28;20036;-59
2021/09/28 12:52:45;;;;;;;5.68;3.42;;;;;;;;;;5056130;28;20029;-59
2021/09/28 12:55:14;;;;;;;3.03;2.20;;;;;;;;;;5056028;28;20025;-59
2021/09/28 12:57:40;;;;;;;7.70;2.90;;;;;;;;;;5037910;28;20025;-59
2021/09/28 13:00:07;;;;;;;5.22;3.15;;;;;;;;;;5055790;28;20480;-59
2021/09/28 13:02:33;;;;;;;4.47;3.15;;;;;;;;;;5056058;28;20375;-59
2021/09/28 13:05:02;;;;;;;6.63;3.10;;;;;;;;;;5056197;28;20028;-59
2021/09/28 13:07:28;;;;;;;5.57;3.22;;;;;;;;;;5056067;28;20021;-59
2021/09/28 13:09:54;;;;;;;4.43;3.00;;;;;;;;;;5055230;28;20508;-59
2021/09/28 13:12:20;;;;;;;4.90;3.40;;;;;;;;;;5055364;28;20489;-59
2021/09/28 13:14:46;;;;;;;7.40;2.90;;;;;;;;;;5055232;28;20467;-59
2021/09/28 13:17:12;;;;;;;7.22;4.00;;;;;;;;;;5055505;28;20029;-59
2021/09/28 13:19:38;;;;;;;4.53;2.75;;;;;;;;;;5055856;28;20025;-59
2021/09/28 13:22:04;;;;;;;5.60;2.95;;;;;;;;;;5055875;28;20469;-59
2021/09/28 13:24:31;;;;;;;6.22;3.35;;;;;;;;;;5055635;28;20021;-59
2021/09/28 13:26:56;;;;;;;5.07;3.45;;;;;;;;;;5055592;28;20032;-59
2021/09/28 13:29:23;;;;;;;4.85;2.97;;;;;;;;;;5055226;28;20028;-59
2021/09/28 13:31:49;;;;;;;4.68;2.92;;;;;;;;;;5055152;28;20131;-59
2021/09/28 13:34:15;;;;;;;5.30;2.97;;;;;;;;;;5055495;28;20025;-59
2021/09/28 13:36:41;;;;;;;7.32;3.75;;;;;;;;;;5054780;28;20082;-59
2021/09/28 13:39:07;;;;;;;5.25;3.22;;;;;;;;;;5037171;28;20036;-59
2021/09/28 13:41:34;;;;;;;5.30;2.45;;;;;;;;;;5054996;28;20025;-59
2021/09/28 13:44:03;;;;;;;5.60;3.25;;;;;;;;;;5055329;28;20029;-59
2021/09/28 13:46:29;;;;;;;3.92;2.70;;;;;;;;;;5055483;28;20375;-59
2021/09/28 13:48:57;;;;;;;4.22;3.00;;;;;;;;;;5054476;28;20463;-59
2021/09/28 13:51:23;;;;;;;4.68;3.00;;;;;;;;;;5054538;28;20095;-59
2021/09/28 13:53:49;;;;;;;5.03;3.25;;;;;;;;;;5055053;28;20032;-59
2021/09/28 13:56:15;;;;;;;6.00;2.92;;;;;;;;;;5054690;28;20029;-59
2021/09/28 13:58:41;;;;;;;7.32;3.30;;;;;;;;;;5054896;28;20036;-59
2021/09/28 14:01:07;;;;;;;4.57;3.10;;;;;;;;;;5054606;28;20115;-59
2021/09/28 14:03:33;;;;;;;5.47;3.35;;;;;;;;;;5055064;28;20451;-59
2021/09/28 14:05:59;;;;;;;5.13;3.10;;;;;;;;;;5036294;28;20031;-59
2021/09/28 14:08:25;;;;;;;5.18;2.60;;;;;;;;;;5055020;28;20029;-59
2021/09/28 14:10:51;;;;;;;5.25;3.88;;;;;;;;;;5054457;28;20063;-59
2021/09/28 14:13:17;;;;;;;5.10;3.38;;;;;;;;;;5054382;28;20033;-59
2021/09/28 14:15:43;;;;;;;3.97;2.25;;;;;;;;;;5054408;28;20451;-59
2021/09/28 14:18:09;;;;;;;5.22;3.38;;;;;;;;;;5054365;28;20100;-59
2021/09/28 14:20:38;;;;;;;4.65;3.55;;;;;;;;;;5054577;28;20363;-59
2021/09/28 14:23:04;;;;;;;6.55;3.47;;;;;;;;;;5036968;28;20029;-59
2021/09/28 14:25:30;;;;;;;5.82;3.22;;;;;;;;;;5054141;28;20379;-59
2021/09/28 14:27:56;;;;;;;5.20;3.38;;;;;;;;;;5054030;28;20127;-59
2021/09/28 14:30:22;;;;;;;6.00;2.80;;;;;;;;;;5036048;28;20025;-59
2021/09/28 14:32:48;;;;;;;9.05;3.20;;;;;;;;;;5054943;28;20029;-59
2021/09/28 14:35:14;;;;;;;4.13;2.55;;;;;;;;;;5054127;28;20057;-59
2021/09/28 14:37:45;;;;;;;3.92;2.50;;;;;;;;;;5036237;28;20115;-59
2021/09/28 14:40:11;;;;;;;;;;;;;;;;;;5054176;28;20040;-59
2021/09/28 14:42:37;;;;;;;5.38;3.08;;;;;;;;;;5054456;28;19905;-59
2021/09/28 14:45:03;;;;;;;4.15;2.90;;;;;;;;;;5053742;28;20029;-59
2021/09/28 14:47:29;;;;;;;3.28;2.13;;;;;;;;;;5053886;28;20021;-59
2021/09/28 14:50:01;;;;;;;3.80;2.85;;;;;;;;;;5053757;28;20137;-59
2021/09/28 14:52:27;;;;;;;4.05;2.42;;;;;;;;;;5054316;28;20029;-59
2021/09/28 14:54:53;;;;;;;4.20;2.40;;;;;;;;;;5054021;28;20470;-59